Silver Shadow — C6FN6 — position and weather

sailwx.info

Track history (hours):
 
Tides and Currents Weather Stations Pressure Air Temp Water Temp Dewpoint Dewpoint Depression Visibility Wind Speed Wind Dir Waves Ship Positions

Silver Shadow

Operator: V Ships Leisure SAM

Last reported at 2018-Jun-22 18:30 UTC. Time now 2018-Jun-22 18:38 UTC.
Position N 51°26' W 128°45'.

Length 186 m; draft 6.1 m.

Type: Ship. MMSI: 308628000.

Date/timePositionNaut miles runAvg speedWind from/ knotsBaromVisibWave heightAir tempDewpointWater temp
2018-Jun-22 18:30N 51°26' W 128°45'713.3
2018-Jun-22 18:00N 51°22' W 128°37'713.2
2018-Jun-22 17:30N 51°18' W 128°28'713.3
2018-Jun-22 17:00N 51°14' W 128°20'713.0
2018-Jun-22 16:30N 51°10' W 128°11'713.2
2018-Jun-22 16:00N 51°06' W 128°03'713.2
2018-Jun-22 15:27N 51°02' W 127°53'613.1
2018-Jun-22 15:00N 50°59' W 127°46'612.7
2018-Jun-22 14:30N 50°54' W 127°38'815.4
2018-Jun-22 14:00N 50°50' W 127°28'815.4
2018-Jun-22 13:30N 50°47' W 127°17'815.4
2018-Jun-22 12:58N 50°44' W 127°05'815.5
2018-Jun-22 12:29N 50°41' W 126°54'815.6
2018-Jun-22 11:57N 50°36' W 126°43'613.2
2018-Jun-22 11:29N 50°31' W 126°38'3414.6
2018-Jun-22 09:09N 50°23' W 125°46'1014.7
2018-Jun-22 08:31N 50°21' W 125°31'713.6
2018-Jun-22 08:00N 50°16' W 125°24'816.8
2018-Jun-22 07:30N 50°08' W 125°21'612.3
2018-Jun-22 07:00N 50°04' W 125°15'4 8.9
2018-Jun-22 06:30N 49°59' W 125°12'612.4
2018-Jun-22 06:00N 49°55' W 125°05'713.1
2018-Jun-22 05:30N 49°51' W 124°58'713.9
2018-Jun-22 05:00N 49°46' W 124°50'714.1
2018-Jun-22 04:30N 49°41' W 124°42'714.2
2018-Jun-22 04:00N 49°36' W 124°35'713.9
2018-Jun-22 03:30N 49°30' W 124°29'713.7
2018-Jun-22 02:59N 49°25' W 124°20'714.7
2018-Jun-22 02:31N 49°24' W 124°10'916.8
2018-Jun-22 01:59N 49°22' W 123°56'817.3
2018-Jun-22 01:30N 49°20' W 123°44'917.4
2018-Jun-22 01:00N 49°18' W 123°31'816.6
2018-Jun-22 00:30N 49°19' W 123°18'714.3
2018-Jun-22 00:00N 49°18' W 123°07'1 2.3
2018-Jun-21 23:30N 49°17' W 123°07'0 0.0
2018-Jun-21 23:00N 49°17' W 123°07'0 0.0
2018-Jun-21 22:30N 49°17' W 123°07'0 0.0
2018-Jun-21 22:00N 49°17' W 123°07'0 0.0
2018-Jun-21 21:30N 49°17' W 123°07'0 0.0
2018-Jun-21 21:00N 49°17' W 123°07'0 0.0
2018-Jun-21 20:27N 49°17' W 123°07'0 0.0
2018-Jun-21 20:00N 49°17' W 123°07'0 0.0
2018-Jun-21 19:30N 49°17' W 123°07'0 0.0
2018-Jun-21 19:00N 49°17' W 123°07'0 0.0
2018-Jun-21 18:30N 49°17' W 123°07'0 0.0
2018-Jun-21 18:00N 49°17' W 123°07'0 0.0
2018-Jun-21 17:30N 49°17' W 123°07'0 0.0
2018-Jun-21 17:00N 49°17' W 123°07'0 0.1
2018-Jun-21 16:30N 49°17' W 123°07'0 0.1
2018-Jun-21 16:00N 49°17' W 123°07'0 0.0
2018-Jun-21 15:30N 49°17' W 123°07'0 0.0
2018-Jun-21 15:00N 49°17' W 123°07'0 0.0
2018-Jun-21 14:30N 49°17' W 123°07'0 0.1
2018-Jun-21 13:59N 49°17' W 123°06'1 3.1
2018-Jun-21 13:30N 49°19' W 123°08'612.1
2018-Jun-21 13:00N 49°18' W 123°17'612.9
2018-Jun-21 12:30N 49°13' W 123°24'713.0
2018-Jun-21 12:00N 49°07' W 123°27'5 9.6
2018-Jun-21 11:28N 49°02' W 123°23'510.4
2018-Jun-21 11:00N 48°59' W 123°18'510.6
2018-Jun-21 10:29N 48°55' W 123°12'510.6
2018-Jun-21 10:00N 48°52' W 123°05'510.8
2018-Jun-21 09:30N 48°48' W 123°00'714.5
2018-Jun-21 09:00N 48°44' W 123°09'611.6
2018-Jun-21 08:29N 48°39' W 123°14'714.4
2018-Jun-21 08:00N 48°32' W 123°12'714.5
2018-Jun-21 07:30N 48°25' W 123°11'9 0.7
2018-Jun-20 18:35N 48°24' W 123°24'111.7
2018-Jun-20 18:28N 48°23' W 123°23'2012.2
2018-Jun-20 16:49N 48°14' W 123°50'716.5
2018-Jun-20 16:23N 48°15' W 124°01'717.4
2018-Jun-20 16:00N 48°18' W 124°10'917.0
2018-Jun-20 15:29N 48°21' W 124°22'816.8
2018-Jun-20 15:00N 48°25' W 124°33'816.4
2018-Jun-20 14:30N 48°28' W 124°44'816.7
2018-Jun-20 14:00N 48°29' W 124°57'816.3
2018-Jun-20 13:30N 48°29' W 125°09'816.3
2018-Jun-20 13:00N 48°32' W 125°20'816.2
2018-Jun-20 12:30N 48°36' W 125°30'816.9
2018-Jun-20 12:00N 48°41' W 125°41'816.5
2018-Jun-20 11:30N 48°45' W 125°52'816.5
2018-Jun-20 11:00N 48°49' W 126°03'816.5
2018-Jun-20 10:30N 48°54' W 126°13'816.5
2018-Jun-20 10:00N 48°59' W 126°23'816.4
2018-Jun-20 09:30N 49°05' W 126°32'916.8
2018-Jun-20 09:00N 49°10' W 126°43'816.5
2018-Jun-20 08:29N 49°16' W 126°52'816.7
2018-Jun-20 08:00N 49°22' W 127°00'916.8
2018-Jun-20 07:29N 49°28' W 127°09'7316.4
2018-Jun-20 03:02N 50°08' W 128°43'817.5
2018-Jun-20 02:35N 50°13' W 128°53'217.4
2018-Jun-20 02:29N 50°14' W 128°55'1017.7
2018-Jun-20 01:55N 50°21' W 129°07'817.7
2018-Jun-20 01:26N 50°26' W 129°17'1617.1
2018-Jun-20 00:31N 50°36' W 129°36'017.9
2018-Jun-20 00:30N 50°37' W 129°36'1417.5
2018-Jun-19 23:44N 50°45' W 129°52'717.3
2018-Jun-19 23:20N 50°50' W 130°01'3917.0
2018-Jun-19 21:03N 51°19' W 130°40'518.1
2018-Jun-19 20:46N 51°23' W 130°46'617.9
2018-Jun-19 20:27N 51°28' W 130°52'45112.2
2018-Jun-18 07:32N 58°18' W 136°20'219.1
2018-Jun-18 07:27N 58°18' W 136°17'818.1
2018-Jun-18 07:01N 58°20' W 136°02'917.8
2018-Jun-18 06:30N 58°18' W 135°45'918.6
2018-Jun-18 06:00N 58°15' W 135°29'247 5.9
2018-Jun-16 12:22N 54°55' W 131°05'513.4
2018-Jun-16 12:00N 54°50' W 131°05'613.0
2018-Jun-16 11:30N 54°44' W 131°08'713.6
2018-Jun-16 11:00N 54°38' W 131°14'613.1
2018-Jun-16 10:30N 54°32' W 131°17'815.1
2018-Jun-16 10:00N 54°24' W 131°16'714.6
2018-Jun-16 09:30N 54°17' W 131°15'713.8
2018-Jun-16 09:00N 54°10' W 131°14'714.0
2018-Jun-16 08:30N 54°03' W 131°14'713.9
2018-Jun-16 08:00N 53°56' W 131°13'713.8
2018-Jun-16 07:30N 53°49' W 131°12'713.6
2018-Jun-16 07:00N 53°42' W 131°12'713.6
2018-Jun-16 06:30N 53°36' W 131°11'611.9
2018-Jun-16 06:00N 53°30' W 131°06'713.7
2018-Jun-16 05:28N 53°24' W 131°01'613.6
2018-Jun-16 05:00N 53°18' W 130°56'713.8
2018-Jun-16 04:29N 53°12' W 130°51'3813.6
2018-Jun-16 01:40N 52°37' W 130°23'613.8
2018-Jun-16 01:13N 52°32' W 130°18'313.6
2018-Jun-16 01:00N 52°29' W 130°16'2213.7
2018-Jun-15 23:24N 52°10' W 129°60'2213.6
2018-Jun-15 21:46N 51°49' W 129°43'413.7
2018-Jun-15 21:29N 51°47' W 129°38'713.9
2018-Jun-15 21:00N 51°44' W 129°29'713.8
2018-Jun-15 20:30N 51°40' W 129°20'713.5
2018-Jun-15 20:00N 51°36' W 129°11'713.4
2018-Jun-15 19:30N 51°33' W 129°02'713.4
2018-Jun-15 19:00N 51°29' W 128°53'713.4
2018-Jun-15 18:30N 51°25' W 128°44'713.4
2018-Jun-15 18:00N 51°21' W 128°36'713.5
2018-Jun-15 17:30N 51°17' W 128°27'713.5
2018-Jun-15 17:00N 51°13' W 128°18'713.5
2018-Jun-15 16:30N 51°09' W 128°10'713.6
2018-Jun-15 16:01N 51°05' W 128°01'713.5
2018-Jun-15 15:29N 51°01' W 127°52'1714.9
2018-Jun-15 14:20N 50°51' W 127°30'617.6
2018-Jun-15 14:00N 50°48' W 127°21'816.9
2018-Jun-15 13:31N 50°45' W 127°09'916.8
2018-Jun-15 13:00N 50°42' W 126°56'816.1
2018-Jun-15 12:29N 50°37' W 126°46'4014.6
2018-Jun-15 09:45N 50°23' W 125°47'916.5
2018-Jun-15 09:13N 50°22' W 125°34'515.6
2018-Jun-15 08:55N 50°20' W 125°27'614.4
2018-Jun-15 08:30N 50°15' W 125°23'815.5
2018-Jun-15 08:00N 50°07' W 125°21'611.7
2018-Jun-15 07:30N 50°03' W 125°14'612.8
2018-Jun-15 07:00N 49°58' W 125°09'713.4
2018-Jun-15 06:30N 49°53' W 125°02'713.9
2018-Jun-15 06:00N 49°48' W 124°54'714.4
2018-Jun-15 05:30N 49°43' W 124°46'815.1
2018-Jun-15 05:00N 49°37' W 124°39'815.0
2018-Jun-15 04:30N 49°32' W 124°31'814.8
2018-Jun-15 03:59N 49°27' W 124°22'714.9
2018-Jun-15 03:30N 49°24' W 124°12'815.0
2018-Jun-15 03:00N 49°22' W 124°00'715.0
2018-Jun-15 02:30N 49°20' W 123°49'815.0
2018-Jun-15 01:57N 49°19' W 123°37'715.0
2018-Jun-15 01:29N 49°19' W 123°26'815.4
2018-Jun-15 01:00N 49°19' W 123°15'611.5
2018-Jun-15 00:30N 49°18' W 123°06'1 1.5
2018-Jun-15 00:00N 49°17' W 123°07'0 0.0
2018-Jun-14 23:30N 49°17' W 123°07'0 0.0
2018-Jun-14 23:00N 49°17' W 123°07'0 0.0
2018-Jun-14 22:30N 49°17' W 123°07'0 0.0
2018-Jun-14 22:00N 49°17' W 123°07'0 0.0
2018-Jun-14 21:30N 49°17' W 123°07'0 0.0
2018-Jun-14 21:00N 49°17' W 123°07'0 0.0
2018-Jun-14 20:30N 49°17' W 123°07'0 0.0
2018-Jun-14 20:00N 49°17' W 123°07'0 0.0
2018-Jun-14 19:30N 49°17' W 123°07'0 0.0
2018-Jun-14 19:00N 49°17' W 123°07'0 0.0
2018-Jun-14 18:30N 49°17' W 123°07'0 0.0
2018-Jun-14 18:00N 49°17' W 123°07'0 0.0
2018-Jun-14 17:30N 49°17' W 123°07'0 0.0
2018-Jun-14 17:00N 49°17' W 123°07'0 0.0
2018-Jun-14 16:30N 49°17' W 123°07'0 0.0
2018-Jun-14 16:00N 49°17' W 123°07'0 0.0
2018-Jun-14 15:30N 49°17' W 123°07'0 0.0
2018-Jun-14 15:00N 49°17' W 123°07'0 0.0
2018-Jun-14 14:30N 49°17' W 123°07'0 0.2
2018-Jun-14 14:00N 49°17' W 123°07'2 4.0
2018-Jun-14 13:30N 49°19' W 123°09'612.6
2018-Jun-14 13:00N 49°18' W 123°18'815.6
2018-Jun-14 12:30N 49°18' W 123°30'1319.0
2018-Jun-14 11:50N 49°20' W 123°49'619.0
2018-Jun-14 11:30N 49°21' W 123°59'918.7
2018-Jun-14 11:00N 49°24' W 124°12'1019.4
2018-Jun-14 10:30N 49°28' W 124°26'918.4
2018-Jun-14 10:00N 49°36' W 124°34'918.6
2018-Jun-14 09:29N 49°42' W 124°44'918.3
2018-Jun-14 09:01N 49°49' W 124°53'918.2
2018-Jun-14 08:30N 49°55' W 125°04'917.4
2018-Jun-14 08:00N 50°01' W 125°13'714.4
2018-Jun-14 07:30N 50°07' W 125°19'510.1
2018-Jun-14 07:00N 50°12' W 125°22'611.8
2018-Jun-14 06:30N 50°18' W 125°25'712.2
2018-Jun-14 05:57N 50°22' W 125°33'614.2
2018-Jun-14 05:30N 50°22' W 125°43'914.3
2018-Jun-14 04:53N 50°24' W 125°56'1514.2
2018-Jun-14 03:49N 50°30' W 126°19'514.5
2018-Jun-14 03:28N 50°30' W 126°27'814.5
2018-Jun-14 02:57N 50°31' W 126°39'713.1
2018-Jun-14 02:25N 50°37' W 126°45'615.3
2018-Jun-14 02:00N 50°41' W 126°53'915.9
2018-Jun-14 01:27N 50°44' W 127°06'716.0
2018-Jun-14 01:00N 50°47' W 127°16'816.0
2018-Jun-14 00:30N 50°50' W 127°27'815.6
2018-Jun-14 00:00N 50°54' W 127°38'815.1
2018-Jun-13 23:30N 50°59' W 127°48'714.1
2018-Jun-13 23:00N 51°03' W 127°57'713.6
2018-Jun-13 22:30N 51°07' W 128°05'713.5
2018-Jun-13 22:00N 51°11' W 128°14'713.6
2018-Jun-13 21:30N 51°15' W 128°23'713.5
2018-Jun-13 21:01N 51°19' W 128°31'713.7
2018-Jun-13 20:30N 51°23' W 128°40'713.5
2018-Jun-13 20:00N 51°27' W 128°49'713.4
2018-Jun-13 19:30N 51°31' W 128°58'713.6
2018-Jun-13 19:00N 51°34' W 129°07'713.9
2018-Jun-13 18:30N 51°38' W 129°16'713.9
2018-Jun-13 18:01N 51°42' W 129°26'713.9
2018-Jun-13 17:29N 51°46' W 129°35'10013.4
2018-Jun-13 10:04N 53°14' W 130°53'113.5
2018-Jun-13 09:59N 53°15' W 130°54'1113.6
2018-Jun-13 09:11N 53°25' W 131°02'213.7
2018-Jun-13 09:00N 53°27' W 131°03'713.5
2018-Jun-13 08:29N 53°33' W 131°09'613.3
2018-Jun-13 08:00N 53°40' W 131°11'713.5
2018-Jun-13 07:30N 53°46' W 131°12'713.5
2018-Jun-13 07:00N 53°53' W 131°13'713.4
2018-Jun-13 06:30N 53°60' W 131°13'713.4
2018-Jun-13 06:00N 54°06' W 131°14'713.4
2018-Jun-13 05:31N 54°13' W 131°15'713.5
2018-Jun-13 05:00N 54°20' W 131°15'713.5
2018-Jun-13 04:30N 54°27' W 131°16'713.4
2018-Jun-13 04:00N 54°33' W 131°17'613.0
2018-Jun-13 03:30N 54°39' W 131°13'813.4
2018-Jun-13 02:56N 54°46' W 131°06'613.2
2018-Jun-13 02:30N 54°52' W 131°05'1613.5
2018-Jun-13 01:18N 55°07' W 131°09'  
Track history (hours):
 
Tides and Currents Weather Stations Pressure Air Temp Water Temp Dewpoint Dewpoint Depression Visibility Wind Speed Wind Dir Waves Ship Positions

Silver Shadow

Operator: V Ships Leisure SAM

Last reported at 2018-Jun-22 18:30 UTC. Time now 2018-Jun-22 18:38 UTC.
Position N 51°26' W 128°45'.

Length 186 m; draft 6.1 m.

Type: Ship. MMSI: 308628000.

Date/timePositionNaut miles runAvg speedWind from/ knotsBaromVisibWave heightAir tempDewpointWater temp
2018-Jun-22 18:30N 51°26' W 128°45'713.3
2018-Jun-22 18:00N 51°22' W 128°37'713.2
2018-Jun-22 17:30N 51°18' W 128°28'713.3
2018-Jun-22 17:00N 51°14' W 128°20'713.0
2018-Jun-22 16:30N 51°10' W 128°11'713.2
2018-Jun-22 16:00N 51°06' W 128°03'713.2
2018-Jun-22 15:27N 51°02' W 127°53'613.1
2018-Jun-22 15:00N 50°59' W 127°46'612.7
2018-Jun-22 14:30N 50°54' W 127°38'815.4
2018-Jun-22 14:00N 50°50' W 127°28'815.4
2018-Jun-22 13:30N 50°47' W 127°17'815.4
2018-Jun-22 12:58N 50°44' W 127°05'815.5
2018-Jun-22 12:29N 50°41' W 126°54'815.6
2018-Jun-22 11:57N 50°36' W 126°43'613.2
2018-Jun-22 11:29N 50°31' W 126°38'3414.6
2018-Jun-22 09:09N 50°23' W 125°46'1014.7
2018-Jun-22 08:31N 50°21' W 125°31'713.6
2018-Jun-22 08:00N 50°16' W 125°24'816.8
2018-Jun-22 07:30N 50°08' W 125°21'612.3
2018-Jun-22 07:00N 50°04' W 125°15'4 8.9
2018-Jun-22 06:30N 49°59' W 125°12'612.4
2018-Jun-22 06:00N 49°55' W 125°05'713.1
2018-Jun-22 05:30N 49°51' W 124°58'713.9
2018-Jun-22 05:00N 49°46' W 124°50'714.1
2018-Jun-22 04:30N 49°41' W 124°42'714.2
2018-Jun-22 04:00N 49°36' W 124°35'713.9
2018-Jun-22 03:30N 49°30' W 124°29'713.7
2018-Jun-22 02:59N 49°25' W 124°20'714.7
2018-Jun-22 02:31N 49°24' W 124°10'916.8
2018-Jun-22 01:59N 49°22' W 123°56'817.3
2018-Jun-22 01:30N 49°20' W 123°44'917.4
2018-Jun-22 01:00N 49°18' W 123°31'816.6
2018-Jun-22 00:30N 49°19' W 123°18'714.3
2018-Jun-22 00:00N 49°18' W 123°07'1 2.3
2018-Jun-21 23:30N 49°17' W 123°07'0 0.0
2018-Jun-21 23:00N 49°17' W 123°07'0 0.0
2018-Jun-21 22:30N 49°17' W 123°07'0 0.0
2018-Jun-21 22:00N 49°17' W 123°07'0 0.0
2018-Jun-21 21:30N 49°17' W 123°07'0 0.0
2018-Jun-21 21:00N 49°17' W 123°07'0 0.0
2018-Jun-21 20:27N 49°17' W 123°07'0 0.0
2018-Jun-21 20:00N 49°17' W 123°07'0 0.0
2018-Jun-21 19:30N 49°17' W 123°07'0 0.0
2018-Jun-21 19:00N 49°17' W 123°07'0 0.0
2018-Jun-21 18:30N 49°17' W 123°07'0 0.0
2018-Jun-21 18:00N 49°17' W 123°07'0 0.0
2018-Jun-21 17:30N 49°17' W 123°07'0 0.0
2018-Jun-21 17:00N 49°17' W 123°07'0 0.1
2018-Jun-21 16:30N 49°17' W 123°07'0 0.1
2018-Jun-21 16:00N 49°17' W 123°07'0 0.0
2018-Jun-21 15:30N 49°17' W 123°07'0 0.0
2018-Jun-21 15:00N 49°17' W 123°07'0 0.0
2018-Jun-21 14:30N 49°17' W 123°07'0 0.1
2018-Jun-21 13:59N 49°17' W 123°06'1 3.1
2018-Jun-21 13:30N 49°19' W 123°08'612.1
2018-Jun-21 13:00N 49°18' W 123°17'612.9
2018-Jun-21 12:30N 49°13' W 123°24'713.0
2018-Jun-21 12:00N 49°07' W 123°27'5 9.6
2018-Jun-21 11:28N 49°02' W 123°23'510.4
2018-Jun-21 11:00N 48°59' W 123°18'510.6
2018-Jun-21 10:29N 48°55' W 123°12'510.6
2018-Jun-21 10:00N 48°52' W 123°05'510.8
2018-Jun-21 09:30N 48°48' W 123°00'714.5
2018-Jun-21 09:00N 48°44' W 123°09'611.6
2018-Jun-21 08:29N 48°39' W 123°14'714.4
2018-Jun-21 08:00N 48°32' W 123°12'714.5
2018-Jun-21 07:30N 48°25' W 123°11'9 0.7
2018-Jun-20 18:35N 48°24' W 123°24'111.7
2018-Jun-20 18:28N 48°23' W 123°23'2012.2
2018-Jun-20 16:49N 48°14' W 123°50'716.5
2018-Jun-20 16:23N 48°15' W 124°01'717.4
2018-Jun-20 16:00N 48°18' W 124°10'917.0
2018-Jun-20 15:29N 48°21' W 124°22'816.8
2018-Jun-20 15:00N 48°25' W 124°33'816.4
2018-Jun-20 14:30N 48°28' W 124°44'816.7
2018-Jun-20 14:00N 48°29' W 124°57'816.3
2018-Jun-20 13:30N 48°29' W 125°09'816.3
2018-Jun-20 13:00N 48°32' W 125°20'816.2
2018-Jun-20 12:30N 48°36' W 125°30'816.9
2018-Jun-20 12:00N 48°41' W 125°41'816.5
2018-Jun-20 11:30N 48°45' W 125°52'816.5
2018-Jun-20 11:00N 48°49' W 126°03'816.5
2018-Jun-20 10:30N 48°54' W 126°13'816.5
2018-Jun-20 10:00N 48°59' W 126°23'816.4
2018-Jun-20 09:30N 49°05' W 126°32'916.8
2018-Jun-20 09:00N 49°10' W 126°43'816.5
2018-Jun-20 08:29N 49°16' W 126°52'816.7
2018-Jun-20 08:00N 49°22' W 127°00'916.8
2018-Jun-20 07:29N 49°28' W 127°09'7316.4
2018-Jun-20 03:02N 50°08' W 128°43'817.5
2018-Jun-20 02:35N 50°13' W 128°53'217.4
2018-Jun-20 02:29N 50°14' W 128°55'1017.7
2018-Jun-20 01:55N 50°21' W 129°07'817.7
2018-Jun-20 01:26N 50°26' W 129°17'1617.1
2018-Jun-20 00:31N 50°36' W 129°36'017.9
2018-Jun-20 00:30N 50°37' W 129°36'1417.5
2018-Jun-19 23:44N 50°45' W 129°52'717.3
2018-Jun-19 23:20N 50°50' W 130°01'3917.0
2018-Jun-19 21:03N 51°19' W 130°40'518.1
2018-Jun-19 20:46N 51°23' W 130°46'617.9
2018-Jun-19 20:27N 51°28' W 130°52'45112.2
2018-Jun-18 07:32N 58°18' W 136°20'219.1
2018-Jun-18 07:27N 58°18' W 136°17'818.1
2018-Jun-18 07:01N 58°20' W 136°02'917.8
2018-Jun-18 06:30N 58°18' W 135°45'918.6
2018-Jun-18 06:00N 58°15' W 135°29'247 5.9
2018-Jun-16 12:22N 54°55' W 131°05'513.4
2018-Jun-16 12:00N 54°50' W 131°05'613.0
2018-Jun-16 11:30N 54°44' W 131°08'713.6
2018-Jun-16 11:00N 54°38' W 131°14'613.1
2018-Jun-16 10:30N 54°32' W 131°17'815.1
2018-Jun-16 10:00N 54°24' W 131°16'714.6
2018-Jun-16 09:30N 54°17' W 131°15'713.8
2018-Jun-16 09:00N 54°10' W 131°14'714.0
2018-Jun-16 08:30N 54°03' W 131°14'713.9
2018-Jun-16 08:00N 53°56' W 131°13'713.8
2018-Jun-16 07:30N 53°49' W 131°12'713.6
2018-Jun-16 07:00N 53°42' W 131°12'713.6
2018-Jun-16 06:30N 53°36' W 131°11'611.9
2018-Jun-16 06:00N 53°30' W 131°06'713.7
2018-Jun-16 05:28N 53°24' W 131°01'613.6
2018-Jun-16 05:00N 53°18' W 130°56'713.8
2018-Jun-16 04:29N 53°12' W 130°51'3813.6
2018-Jun-16 01:40N 52°37' W 130°23'613.8
2018-Jun-16 01:13N 52°32' W 130°18'313.6
2018-Jun-16 01:00N 52°29' W 130°16'2213.7
2018-Jun-15 23:24N 52°10' W 129°60'2213.6
2018-Jun-15 21:46N 51°49' W 129°43'413.7
2018-Jun-15 21:29N 51°47' W 129°38'713.9
2018-Jun-15 21:00N 51°44' W 129°29'713.8
2018-Jun-15 20:30N 51°40' W 129°20'713.5
2018-Jun-15 20:00N 51°36' W 129°11'713.4
2018-Jun-15 19:30N 51°33' W 129°02'713.4
2018-Jun-15 19:00N 51°29' W 128°53'713.4
2018-Jun-15 18:30N 51°25' W 128°44'713.4
2018-Jun-15 18:00N 51°21' W 128°36'713.5
2018-Jun-15 17:30N 51°17' W 128°27'713.5
2018-Jun-15 17:00N 51°13' W 128°18'713.5
2018-Jun-15 16:30N 51°09' W 128°10'713.6
2018-Jun-15 16:01N 51°05' W 128°01'713.5
2018-Jun-15 15:29N 51°01' W 127°52'1714.9
2018-Jun-15 14:20N 50°51' W 127°30'617.6
2018-Jun-15 14:00N 50°48' W 127°21'816.9
2018-Jun-15 13:31N 50°45' W 127°09'916.8
2018-Jun-15 13:00N 50°42' W 126°56'816.1
2018-Jun-15 12:29N 50°37' W 126°46'4014.6
2018-Jun-15 09:45N 50°23' W 125°47'916.5
2018-Jun-15 09:13N 50°22' W 125°34'515.6
2018-Jun-15 08:55N 50°20' W 125°27'614.4
2018-Jun-15 08:30N 50°15' W 125°23'815.5
2018-Jun-15 08:00N 50°07' W 125°21'611.7
2018-Jun-15 07:30N 50°03' W 125°14'612.8
2018-Jun-15 07:00N 49°58' W 125°09'713.4
2018-Jun-15 06:30N 49°53' W 125°02'713.9
2018-Jun-15 06:00N 49°48' W 124°54'714.4
2018-Jun-15 05:30N 49°43' W 124°46'815.1
2018-Jun-15 05:00N 49°37' W 124°39'815.0
2018-Jun-15 04:30N 49°32' W 124°31'814.8
2018-Jun-15 03:59N 49°27' W 124°22'714.9
2018-Jun-15 03:30N 49°24' W 124°12'815.0
2018-Jun-15 03:00N 49°22' W 124°00'715.0
2018-Jun-15 02:30N 49°20' W 123°49'815.0
2018-Jun-15 01:57N 49°19' W 123°37'715.0
2018-Jun-15 01:29N 49°19' W 123°26'815.4
2018-Jun-15 01:00N 49°19' W 123°15'611.5
2018-Jun-15 00:30N 49°18' W 123°06'1 1.5
2018-Jun-15 00:00N 49°17' W 123°07'0 0.0
2018-Jun-14 23:30N 49°17' W 123°07'0 0.0
2018-Jun-14 23:00N 49°17' W 123°07'0 0.0
2018-Jun-14 22:30N 49°17' W 123°07'0 0.0
2018-Jun-14 22:00N 49°17' W 123°07'0 0.0
2018-Jun-14 21:30N 49°17' W 123°07'0 0.0
2018-Jun-14 21:00N 49°17' W 123°07'0 0.0
2018-Jun-14 20:30N 49°17' W 123°07'0 0.0
2018-Jun-14 20:00N 49°17' W 123°07'0 0.0
2018-Jun-14 19:30N 49°17' W 123°07'0 0.0
2018-Jun-14 19:00N 49°17' W 123°07'0 0.0
2018-Jun-14 18:30N 49°17' W 123°07'0 0.0
2018-Jun-14 18:00N 49°17' W 123°07'0 0.0
2018-Jun-14 17:30N 49°17' W 123°07'0 0.0
2018-Jun-14 17:00N 49°17' W 123°07'0 0.0
2018-Jun-14 16:30N 49°17' W 123°07'0 0.0
2018-Jun-14 16:00N 49°17' W 123°07'0 0.0
2018-Jun-14 15:30N 49°17' W 123°07'0 0.0
2018-Jun-14 15:00N 49°17' W 123°07'0 0.0
2018-Jun-14 14:30N 49°17' W 123°07'0 0.2
2018-Jun-14 14:00N 49°17' W 123°07'2 4.0
2018-Jun-14 13:30N 49°19' W 123°09'612.6
2018-Jun-14 13:00N 49°18' W 123°18'815.6
2018-Jun-14 12:30N 49°18' W 123°30'1319.0
2018-Jun-14 11:50N 49°20' W 123°49'619.0
2018-Jun-14 11:30N 49°21' W 123°59'918.7
2018-Jun-14 11:00N 49°24' W 124°12'1019.4
2018-Jun-14 10:30N 49°28' W 124°26'918.4
2018-Jun-14 10:00N 49°36' W 124°34'918.6
2018-Jun-14 09:29N 49°42' W 124°44'918.3
2018-Jun-14 09:01N 49°49' W 124°53'918.2
2018-Jun-14 08:30N 49°55' W 125°04'917.4
2018-Jun-14 08:00N 50°01' W 125°13'714.4
2018-Jun-14 07:30N 50°07' W 125°19'510.1
2018-Jun-14 07:00N 50°12' W 125°22'611.8
2018-Jun-14 06:30N 50°18' W 125°25'712.2
2018-Jun-14 05:57N 50°22' W 125°33'614.2
2018-Jun-14 05:30N 50°22' W 125°43'914.3
2018-Jun-14 04:53N 50°24' W 125°56'1514.2
2018-Jun-14 03:49N 50°30' W 126°19'514.5
2018-Jun-14 03:28N 50°30' W 126°27'814.5
2018-Jun-14 02:57N 50°31' W 126°39'713.1
2018-Jun-14 02:25N 50°37' W 126°45'615.3
2018-Jun-14 02:00N 50°41' W 126°53'915.9
2018-Jun-14 01:27N 50°44' W 127°06'716.0
2018-Jun-14 01:00N 50°47' W 127°16'816.0
2018-Jun-14 00:30N 50°50' W 127°27'815.6
2018-Jun-14 00:00N 50°54' W 127°38'815.1
2018-Jun-13 23:30N 50°59' W 127°48'714.1
2018-Jun-13 23:00N 51°03' W 127°57'713.6
2018-Jun-13 22:30N 51°07' W 128°05'713.5
2018-Jun-13 22:00N 51°11' W 128°14'713.6
2018-Jun-13 21:30N 51°15' W 128°23'713.5
2018-Jun-13 21:01N 51°19' W 128°31'713.7
2018-Jun-13 20:30N 51°23' W 128°40'713.5
2018-Jun-13 20:00N 51°27' W 128°49'713.4
2018-Jun-13 19:30N 51°31' W 128°58'713.6
2018-Jun-13 19:00N 51°34' W 129°07'713.9
2018-Jun-13 18:30N 51°38' W 129°16'713.9
2018-Jun-13 18:01N 51°42' W 129°26'713.9
2018-Jun-13 17:29N 51°46' W 129°35'10013.4
2018-Jun-13 10:04N 53°14' W 130°53'113.5
2018-Jun-13 09:59N 53°15' W 130°54'1113.6
2018-Jun-13 09:11N 53°25' W 131°02'213.7
2018-Jun-13 09:00N 53°27' W 131°03'713.5
2018-Jun-13 08:29N 53°33' W 131°09'613.3
2018-Jun-13 08:00N 53°40' W 131°11'713.5
2018-Jun-13 07:30N 53°46' W 131°12'713.5
2018-Jun-13 07:00N 53°53' W 131°13'713.4
2018-Jun-13 06:30N 53°60' W 131°13'713.4
2018-Jun-13 06:00N 54°06' W 131°14'713.4
2018-Jun-13 05:31N 54°13' W 131°15'713.5
2018-Jun-13 05:00N 54°20' W 131°15'713.5
2018-Jun-13 04:30N 54°27' W 131°16'713.4
2018-Jun-13 04:00N 54°33' W 131°17'613.0
2018-Jun-13 03:30N 54°39' W 131°13'813.4
2018-Jun-13 02:56N 54°46' W 131°06'613.2
2018-Jun-13 02:30N 54°52' W 131°05'1613.5
2018-Jun-13 01:18N 55°07' W 131°09'  

Dump ship's entire track history